Stetson, Maine
Current Conditions -  °F | °C
As of 1:53 AM on Friday 19 Dec 2014 (Local Time) from KBGR Reporting Station
Scattered Clouds Scattered Clouds  
Wind Chill: 22°   Ceiling: Unl
Heat Index: 29°   Visibility: 10mi
Dew Point: 24°   Wind: 7mph
Humidity: 82%   Direction: 280°W
Pressure: 29.76"   Gusts: NA
Location:  44.89°N, 69.14°W
Report Text: KBGR 190653Z 28006KT 10SM SCT038 M02/M04 A2976 RMK AO2 SLP079 T10171044
Loading
Personal Weather Stations






























Interactive Weather Map New forecast layout! Learn more

10-Day Weather Forecast

Advertisements
Track Severe Weather on mobile